Terminal Aerodrome Forecast
Issued by NWS

Home | Current Version | Previous Version | Text Only | Print | Product List | Glossary On
Versions: 1 2 3 4 5 6 7 8 9 10 11 12 13 14 15 16 17 18 19 20
187
FTUS41 KILN 292341
TAFLCK
TAF
KLCK 292341Z 3000/3024 16007KT P6SM VCTS SCT040CB
      TEMPO 3000/3001 VRB15G25KT -TSRA BKN050CB
     FM300200 24006KT P6SM SCT050 BKN100
     FM300500 28004KT P6SM SKC
     FM301500 33008KT P6SM SCT050
     FM302200 31005KT P6SM SKC=

USA.gov is the U.S. government's official web portal to all federal, state and local government web resources and services.